createdAt,value
2022-11-17T00:02:04.987Z,99335.33
2022-11-17T00:04:31.714Z,99337.54
2022-11-17T00:06:58.760Z,99337.88
2022-11-17T00:09:25.632Z,99339.91
2022-11-17T00:12:10.817Z,99344.90
2022-11-17T00:14:37.777Z,99349.09
2022-11-17T00:17:08.903Z,99347.80
2022-11-17T00:19:54.294Z,99346.48
2022-11-17T00:22:21.039Z,99344.91
2022-11-17T00:24:48.275Z,99342.42
2022-11-17T00:27:15.095Z,99338.80
2022-11-17T00:29:42.024Z,99341.45
2022-11-17T00:32:36.811Z,99339.02
2022-11-17T00:35:04.331Z,99341.97
2022-11-17T00:37:32.973Z,99338.03
2022-11-17T00:40:01.260Z,99341.56
2022-11-17T00:42:28.156Z,99342.28
2022-11-17T00:44:54.788Z,99338.33
2022-11-17T00:47:21.523Z,99329.35
2022-11-17T00:49:48.235Z,99332.31
2022-11-17T00:52:14.859Z,99327.63
2022-11-17T00:54:41.507Z,99333.83
2022-11-17T00:57:08.219Z,99337.30
2022-11-17T00:59:34.851Z,99331.36
2022-11-17T01:02:01.620Z,99331.95
2022-11-17T01:04:28.372Z,99327.33
2022-11-17T01:06:55.103Z,99332.38
2022-11-17T01:09:23.292Z,99329.78
2022-11-17T01:11:50.954Z,99330.05
2022-11-17T01:14:20.273Z,99332.13
2022-11-17T01:16:47.025Z,99328.31
2022-11-17T01:19:16.349Z,99326.27
2022-11-17T01:21:43.095Z,99325.23
2022-11-17T01:24:11.152Z,99326.81
2022-11-17T01:26:38.137Z,99331.64
2022-11-17T01:29:05.053Z,99332.52
2022-11-17T01:31:33.229Z,99340.09
2022-11-17T01:34:00.011Z,99340.30
2022-11-17T01:36:54.860Z,99348.27
2022-11-17T01:39:22.583Z,99349.86
2022-11-17T01:41:49.198Z,99337.95
2022-11-17T01:44:37.805Z,99337.59
2022-11-17T01:47:04.819Z,99335.56
2022-11-17T01:49:31.628Z,99336.02
2022-11-17T01:52:02.479Z,99336.14
2022-11-17T01:54:29.241Z,99337.45
2022-11-17T01:56:58.531Z,99334.67
2022-11-17T01:59:37.096Z,99329.70
2022-11-17T02:02:03.853Z,99330.77
2022-11-17T02:04:36.508Z,99331.88
2022-11-17T02:07:08.204Z,99338.01
2022-11-17T02:09:35.093Z,99338.73
2022-11-17T02:12:01.731Z,99333.77
2022-11-17T02:14:28.405Z,99337.57
2022-11-17T02:16:55.047Z,99338.00
2022-11-17T02:19:21.695Z,99341.05
2022-11-17T02:22:06.643Z,99335.80
2022-11-17T02:24:53.998Z,99342.73
2022-11-17T02:27:33.322Z,99341.05
2022-11-17T02:30:06.780Z,99343.64
2022-11-17T02:32:49.223Z,99345.55
2022-11-17T02:35:45.212Z,99346.79
2022-11-17T02:38:24.778Z,99341.67
2022-11-17T02:40:54.915Z,99340.11
2022-11-17T02:43:41.227Z,99337.39
2022-11-17T02:46:09.780Z,99342.73
2022-11-17T02:48:38.757Z,99341.29
2022-11-17T02:51:06.301Z,99333.80
2022-11-17T02:53:33.360Z,99336.27
2022-11-17T02:56:01.092Z,99338.63
2022-11-17T02:58:27.769Z,99336.80
2022-11-17T03:01:07.786Z,99342.33
2022-11-17T03:03:37.714Z,99341.33
2022-11-17T03:06:11.115Z,99344.55
2022-11-17T03:09:02.254Z,99345.58
2022-11-17T03:11:34.582Z,99344.70
2022-11-17T03:14:10.288Z,99342.76
2022-11-17T03:16:55.763Z,99349.27
2022-11-17T03:19:27.042Z,99351.56
2022-11-17T03:22:05.974Z,99351.54
2022-11-17T03:24:40.802Z,99350.15
2022-11-17T03:27:17.084Z,99343.20
2022-11-17T03:29:46.131Z,99346.89
2022-11-17T03:32:12.934Z,99342.54
2022-11-17T03:34:42.427Z,99341.42
2022-11-17T03:37:09.244Z,99341.31
2022-11-17T03:39:42.288Z,99343.20
2022-11-17T03:42:24.365Z,99338.38
2022-11-17T03:44:53.732Z,99340.96
2022-11-17T03:47:21.164Z,99339.78
2022-11-17T03:49:53.038Z,99341.73
2022-11-17T03:52:19.822Z,99336.84
2022-11-17T03:54:46.467Z,99340.86
2022-11-17T03:57:21.347Z,99339.35
2022-11-17T03:59:56.904Z,99333.91
2022-11-17T04:02:24.062Z,99332.95
2022-11-17T04:05:05.905Z,99323.94
2022-11-17T04:07:52.929Z,99325.98
2022-11-17T04:10:25.662Z,99323.42
2022-11-17T04:13:12.475Z,99323.10
2022-11-17T04:15:58.929Z,99322.38
2022-11-17T04:18:26.182Z,99322.01
2022-11-17T04:20:53.813Z,99316.96
2022-11-17T04:23:20.827Z,99317.42
2022-11-17T04:26:07.910Z,99318.92
2022-11-17T04:28:39.036Z,99323.52
2022-11-17T04:31:14.745Z,99324.72
2022-11-17T04:33:51.481Z,99327.05
2022-11-17T04:36:19.598Z,99327.34
2022-11-17T04:38:47.758Z,99326.33
2022-11-17T04:41:33.667Z,99321.17
2022-11-17T04:44:00.948Z,99325.40
2022-11-17T04:46:27.703Z,99323.85
2022-11-17T04:48:54.602Z,99319.69
2022-11-17T04:51:21.408Z,99316.59
2022-11-17T04:53:48.064Z,99320.27
2022-11-17T04:56:14.839Z,99325.27
2022-11-17T04:58:41.592Z,99329.00
2022-11-17T05:01:14.277Z,99330.89
2022-11-17T05:03:53.768Z,99332.11
2022-11-17T05:06:21.644Z,99338.23
2022-11-17T05:08:48.469Z,99344.92
2022-11-17T05:11:33.699Z,99349.98
2022-11-17T05:14:00.656Z,99350.98
2022-11-17T05:16:45.935Z,99357.38
2022-11-17T05:19:18.178Z,99356.48
2022-11-17T05:21:44.912Z,99359.64
2022-11-17T05:24:11.745Z,99361.17
2022-11-17T05:26:38.609Z,99368.45
2022-11-17T05:29:06.114Z,99370.81
2022-11-17T05:31:32.850Z,99373.14
2022-11-17T05:33:59.634Z,99371.08
2022-11-17T05:36:26.856Z,99375.35
2022-11-17T05:38:53.774Z,99378.45
2022-11-17T05:41:20.708Z,99383.90
2022-11-17T05:43:47.579Z,99395.05
2022-11-17T05:46:14.296Z,99400.95
2022-11-17T05:48:40.995Z,99404.27
2022-11-17T05:51:07.723Z,99398.41
2022-11-17T05:53:34.674Z,99390.28
2022-11-17T05:56:33.698Z,99387.60
2022-11-17T05:59:04.914Z,99371.35
2022-11-17T06:01:31.596Z,99364.05
2022-11-17T06:03:59.670Z,99354.48
2022-11-17T06:06:26.416Z,99349.95
2022-11-17T06:08:53.213Z,99343.81
2022-11-17T06:11:19.854Z,99346.39
2022-11-17T06:13:46.607Z,99351.25
2022-11-17T06:16:14.415Z,99356.20
2022-11-17T06:18:55.985Z,99359.95
2022-11-17T06:21:22.713Z,99365.84
2022-11-17T06:23:49.374Z,99370.13
2022-11-17T06:26:16.139Z,99368.16
2022-11-17T06:28:44.084Z,99367.25
2022-11-17T06:31:10.764Z,99367.58
2022-11-17T06:33:37.989Z,99362.66
2022-11-17T06:36:06.453Z,99354.66
2022-11-17T06:38:35.817Z,99354.33
2022-11-17T06:41:07.526Z,99350.61
2022-11-17T06:43:38.472Z,99351.59
2022-11-17T06:46:05.675Z,99346.87
2022-11-17T06:48:35.831Z,99349.62
2022-11-17T06:51:06.216Z,99349.31
2022-11-17T06:53:33.551Z,99351.19
2022-11-17T06:56:03.934Z,99350.90
2022-11-17T06:58:30.678Z,99351.52
2022-11-17T07:01:08.470Z,99350.71
2022-11-17T07:03:39.002Z,99346.65
2022-11-17T07:06:06.782Z,99351.02
2022-11-17T07:08:34.187Z,99350.58
2022-11-17T07:11:07.326Z,99344.88
2022-11-17T07:13:38.084Z,99342.19
2022-11-17T07:16:12.002Z,99343.52
2022-11-17T07:18:40.508Z,99345.63
2022-11-17T07:21:10.142Z,99343.16
2022-11-17T07:23:37.412Z,99344.84
2022-11-17T07:26:04.459Z,99345.45
2022-11-17T07:28:31.260Z,99344.34
2022-11-17T07:31:01.021Z,99349.55
2022-11-17T07:33:27.777Z,99344.13
2022-11-17T07:35:55.993Z,99344.52
2022-11-17T07:38:23.136Z,99348.58
2022-11-17T07:40:49.859Z,99350.08
2022-11-17T07:43:16.619Z,99354.29
2022-11-17T07:45:43.283Z,99359.95
2022-11-17T07:48:09.948Z,99363.90
2022-11-17T07:50:39.764Z,99366.58
2022-11-17T07:53:06.409Z,99371.10
2022-11-17T07:55:33.155Z,99371.94
2022-11-17T07:58:00.924Z,99375.23
2022-11-17T08:00:29.353Z,99376.43
2022-11-17T08:02:56.249Z,99374.25
2022-11-17T08:05:22.999Z,99374.51
2022-11-17T08:07:56.076Z,99378.20
2022-11-17T08:10:22.997Z,99376.60
2022-11-17T08:12:53.380Z,99376.91
2022-11-17T08:15:22.244Z,99373.45
2022-11-17T08:17:54.308Z,99376.20
2022-11-17T08:20:21.657Z,99371.79
2022-11-17T08:22:52.296Z,99364.11
2022-11-17T08:25:19.855Z,99361.13
2022-11-17T08:27:48.629Z,99358.27
2022-11-17T08:30:15.844Z,99359.69
2022-11-17T08:32:50.582Z,99356.89
2022-11-17T08:35:17.648Z,99357.80
2022-11-17T08:37:44.427Z,99351.05
2022-11-17T08:40:12.074Z,99346.52
2022-11-17T08:42:38.854Z,99345.11
2022-11-17T08:45:06.900Z,99347.33
2022-11-17T08:47:34.223Z,99343.62
2022-11-17T08:50:00.975Z,99341.96
2022-11-17T08:52:28.323Z,99339.77
2022-11-17T08:54:55.076Z,99332.73
2022-11-17T08:57:22.443Z,99331.38
2022-11-17T08:59:49.392Z,99327.23
2022-11-17T09:02:16.873Z,99323.64
2022-11-17T09:04:46.032Z,99318.59
2022-11-17T09:07:13.123Z,99318.15
2022-11-17T14:36:33.437Z,99182.75
2022-11-17T14:39:00.826Z,99179.55
2022-11-17T14:41:27.509Z,99181.69
2022-11-17T14:43:54.177Z,99184.76
2022-11-17T14:46:22.124Z,99188.48
2022-11-17T14:48:48.899Z,99192.08
2022-11-17T14:51:16.263Z,99189.77
2022-11-17T14:53:43.952Z,99193.27
2022-11-17T14:56:10.905Z,99191.96
2022-11-17T14:58:37.568Z,99194.45
2022-11-17T15:01:11.608Z,99198.17
2022-11-17T15:03:38.528Z,99203.21
2022-11-17T15:06:09.802Z,99208.35
2022-11-17T15:08:36.565Z,99207.18
2022-11-17T15:11:03.917Z,99208.25
2022-11-17T15:13:30.976Z,99207.64
2022-11-17T15:16:02.256Z,99203.20
2022-11-17T15:18:29.089Z,99204.21
2022-11-17T15:21:06.465Z,99200.30
2022-11-17T15:23:33.497Z,99197.08
2022-11-17T15:26:00.420Z,99198.73
2022-11-17T15:28:30.528Z,99197.90
2022-11-17T15:30:57.478Z,99200.77
2022-11-17T15:33:24.489Z,99196.61
2022-11-17T15:36:04.232Z,99196.06
2022-11-17T15:38:31.941Z,99194.29
2022-11-17T15:40:58.635Z,99191.11
2022-11-17T15:43:29.230Z,99193.27
2022-11-17T15:46:03.813Z,99199.10
2022-11-17T15:48:34.185Z,99201.53
2022-11-17T15:51:03.008Z,99204.45
2022-11-17T15:53:33.247Z,99204.30
2022-11-17T15:56:14.298Z,99207.95
2022-11-17T15:58:41.546Z,99206.02
2022-11-17T16:01:14.443Z,99201.64
2022-11-17T16:03:42.504Z,99196.10
2022-11-17T16:06:09.907Z,99198.82
2022-11-17T16:08:36.746Z,99201.42
2022-11-17T16:11:03.863Z,99207.70
2022-11-17T16:13:30.953Z,99205.27
2022-11-17T16:15:57.877Z,99202.73
2022-11-17T16:18:24.931Z,99202.64
2022-11-17T16:20:51.691Z,99203.05
2022-11-17T16:23:34.138Z,99206.99
2022-11-17T16:26:01.569Z,99204.78
2022-11-17T16:28:28.336Z,99204.95
2022-11-17T16:30:58.025Z,99207.61
2022-11-17T16:33:27.002Z,99202.39
2022-11-17T16:35:53.854Z,99201.42
2022-11-17T16:38:21.378Z,99201.89
2022-11-17T16:40:51.903Z,99204.46
2022-11-17T16:43:18.614Z,99200.23
2022-11-17T16:45:45.448Z,99190.96
2022-11-17T16:48:12.361Z,99185.64
2022-11-17T16:50:40.135Z,99179.91
2022-11-17T16:53:06.997Z,99179.62
2022-11-17T16:55:38.920Z,99176.67
2022-11-17T16:58:06.160Z,99170.12
2022-11-17T17:00:34.792Z,99165.92
2022-11-17T17:03:02.148Z,99167.52
2022-11-17T17:05:31.741Z,99164.52
2022-11-17T17:07:58.425Z,99165.86
2022-11-17T17:10:25.198Z,99167.79
2022-11-17T17:12:52.240Z,99167.23
2022-11-17T17:15:19.109Z,99168.66
2022-11-17T17:17:48.659Z,99165.04
2022-11-17T17:20:15.964Z,99159.58
2022-11-17T17:22:42.801Z,99163.23
2022-11-17T17:25:10.375Z,99162.46
2022-11-17T17:27:39.577Z,99172.15
2022-11-17T17:30:13.060Z,99178.83
2022-11-17T17:32:41.608Z,99177.88
2022-11-17T17:35:08.942Z,99174.07
2022-11-17T17:37:43.722Z,99176.08
2022-11-17T17:40:11.172Z,99176.46
2022-11-17T17:42:40.724Z,99172.86
2022-11-17T17:45:09.880Z,99176.84
2022-11-17T17:47:37.013Z,99172.20
2022-11-17T17:50:05.377Z,99167.35
2022-11-17T17:52:33.294Z,99167.17
2022-11-17T17:55:00.415Z,99165.90
2022-11-17T17:57:32.777Z,99171.90
2022-11-17T18:00:04.805Z,99174.02
2022-11-17T18:02:31.700Z,99174.30
2022-11-17T18:05:00.811Z,99173.54
2022-11-17T18:07:28.435Z,99169.70
2022-11-17T18:10:00.968Z,99163.45
2022-11-17T18:12:28.103Z,99162.53
2022-11-17T18:15:04.137Z,99164.60
2022-11-17T18:17:35.141Z,99170.42
2022-11-17T18:20:08.970Z,99172.78
2022-11-17T18:22:41.171Z,99166.57
2022-11-17T18:25:10.563Z,99166.27
2022-11-17T18:27:42.111Z,99165.23
2022-11-17T18:30:10.264Z,99169.10
2022-11-17T18:32:38.064Z,99176.36
2022-11-17T18:35:06.391Z,99173.73
2022-11-17T18:37:34.141Z,99165.60
2022-11-17T18:40:01.815Z,99166.09
2022-11-17T18:42:30.079Z,99164.58
2022-11-17T18:44:57.684Z,99163.49
2022-11-17T18:47:26.689Z,99161.75
2022-11-17T18:49:54.322Z,99159.70
2022-11-17T18:52:25.899Z,99163.33
2022-11-17T18:54:56.023Z,99159.76
2022-11-17T18:57:26.149Z,99159.54
2022-11-17T18:59:53.796Z,99164.69
2022-11-17T19:02:22.998Z,99166.98
2022-11-17T19:04:51.487Z,99167.73
2022-11-17T19:07:19.315Z,99164.77
2022-11-17T19:09:47.826Z,99155.58
2022-11-17T19:12:15.691Z,99152.71
2022-11-17T19:14:43.360Z,99151.17
2022-11-17T19:17:10.932Z,99151.23
2022-11-17T19:19:38.378Z,99144.80
2022-11-17T19:22:05.976Z,99147.18
2022-11-17T19:24:33.744Z,99152.33
2022-11-17T19:27:01.205Z,99152.34
2022-11-17T19:29:30.868Z,99150.65
2022-11-17T19:31:58.615Z,99145.80
2022-11-17T19:34:26.658Z,99146.20
2022-11-17T19:36:54.730Z,99147.77
2022-11-17T19:39:22.781Z,99145.48
2022-11-17T19:41:50.500Z,99139.75
2022-11-17T19:44:18.146Z,99145.38
2022-11-17T19:46:46.242Z,99145.66
2022-11-17T19:49:14.652Z,99147.19
2022-11-17T19:51:42.561Z,99150.90
2022-11-17T19:54:10.328Z,99151.34
2022-11-17T19:56:38.667Z,99140.97
2022-11-17T19:59:06.307Z,99136.88
2022-11-17T20:01:34.314Z,99138.30
2022-11-17T20:04:06.871Z,99134.23
2022-11-17T20:06:38.144Z,99129.19
2022-11-17T20:09:11.213Z,99131.05
2022-11-17T20:11:44.878Z,99130.67
2022-11-17T20:14:11.835Z,99126.11
2022-11-17T20:16:42.426Z,99122.14
2022-11-17T20:19:10.440Z,99115.55
2022-11-17T20:21:40.085Z,99110.93
2022-11-17T20:24:08.473Z,99111.65
2022-11-17T20:26:42.539Z,99113.81
2022-11-17T20:29:15.856Z,99110.05
2022-11-17T20:31:44.950Z,99108.15
2022-11-17T20:34:18.602Z,99107.23
2022-11-17T20:36:45.485Z,99099.95
2022-11-17T20:39:17.176Z,99098.91
2022-11-17T20:41:46.219Z,99096.46
2022-11-17T20:44:24.337Z,99098.27
2022-11-17T20:46:56.981Z,99092.21
2022-11-17T20:49:25.370Z,99093.73
2022-11-17T20:51:56.582Z,99093.77
2022-11-17T20:54:23.481Z,99095.11
2022-11-17T20:56:56.083Z,99097.05
2022-11-17T20:59:26.344Z,99102.48
2022-11-17T21:01:55.294Z,99104.73
2022-11-17T21:04:22.255Z,99105.83
2022-11-17T21:06:49.056Z,99107.98
2022-11-17T21:09:16.330Z,99106.83
2022-11-17T21:11:58.389Z,99111.03
2022-11-17T21:14:28.686Z,99114.48
2022-11-17T21:16:57.782Z,99113.81
2022-11-17T21:19:24.680Z,99111.49
2022-11-17T21:21:53.426Z,99112.59
2022-11-17T21:24:21.798Z,99114.39
2022-11-17T21:26:50.563Z,99120.55
2022-11-17T21:29:17.289Z,99114.95
2022-11-17T21:31:44.366Z,99115.29
2022-11-17T21:34:14.152Z,99115.98
2022-11-17T21:36:40.765Z,99123.98
2022-11-17T21:39:07.621Z,99128.13
2022-11-17T21:41:38.406Z,99129.02
2022-11-17T21:44:05.197Z,99130.63
2022-11-17T21:46:32.890Z,99130.92
2022-11-17T21:48:59.921Z,99136.29
2022-11-17T21:51:28.440Z,99132.73
2022-11-17T21:53:58.989Z,99140.58
2022-11-17T21:56:26.929Z,99146.09
2022-11-17T21:58:58.092Z,99144.15
2022-11-17T22:01:25.011Z,99141.63
2022-11-17T22:03:51.712Z,99138.73
2022-11-17T22:06:19.448Z,99143.71
2022-11-17T22:08:47.156Z,99141.01
2022-11-17T22:11:15.691Z,99139.23
2022-11-17T22:13:42.524Z,99137.94
2022-11-17T22:16:13.401Z,99137.06
2022-11-17T22:18:40.728Z,99136.54
2022-11-17T22:21:07.859Z,99140.02
2022-11-17T22:23:35.256Z,99138.78
2022-11-17T22:26:04.179Z,99139.00
2022-11-17T22:28:30.912Z,99141.29
2022-11-17T22:30:57.692Z,99144.23
2022-11-17T22:33:24.577Z,99142.58
2022-11-17T22:35:51.320Z,99143.30
2022-11-17T22:38:18.132Z,99139.94
2022-11-17T22:40:44.882Z,99140.84
2022-11-17T22:43:14.819Z,99140.70
2022-11-17T22:45:42.304Z,99142.37
2022-11-17T22:48:09.086Z,99143.76
2022-11-17T22:50:35.986Z,99143.68
2022-11-17T22:53:02.870Z,99148.30
2022-11-17T22:55:29.710Z,99151.48
2022-11-17T22:57:56.501Z,99155.70
2022-11-17T23:00:23.267Z,99155.06
2022-11-17T23:02:50.030Z,99157.70
2022-11-17T23:05:16.792Z,99152.20
2022-11-17T23:07:43.881Z,99152.45
2022-11-17T23:10:10.764Z,99152.88
2022-11-17T23:12:37.497Z,99149.02
2022-11-17T23:15:05.123Z,99155.98
2022-11-17T23:17:31.953Z,99156.39
2022-11-17T23:19:58.709Z,99159.15
2022-11-17T23:22:25.745Z,99160.04
2022-11-17T23:24:52.410Z,99162.16
2022-11-17T23:27:19.056Z,99162.66
2022-11-17T23:29:45.697Z,99166.54
2022-11-17T23:32:12.471Z,99168.45
2022-11-17T23:34:39.103Z,99174.38
2022-11-17T23:37:05.820Z,99180.24
2022-11-17T23:39:33.423Z,99182.35
2022-11-17T23:42:00.102Z,99178.98
2022-11-17T23:44:26.730Z,99176.77
2022-11-17T23:46:53.484Z,99180.28
2022-11-17T23:49:20.239Z,99177.58
2022-11-17T23:51:46.953Z,99179.76
2022-11-17T23:54:13.868Z,99183.13
2022-11-17T23:56:40.587Z,99186.95
2022-11-17T23:59:08.213Z,99190.20
